sensor_id;sensor_type;location;lat;lon;timestamp;pressure;altitude;pressure_sealevel;temperature;humidity
51526;BME280;37611;51.794;21.590;2023-06-22T00:02:29;100015.95;;;21.25;100.00
51526;BME280;37611;51.794;21.590;2023-06-22T00:06:31;100014.08;;;21.22;100.00
51526;BME280;37611;51.794;21.590;2023-06-22T00:10:33;100013.69;;;21.20;100.00
51526;BME280;37611;51.794;21.590;2023-06-22T00:14:35;100006.49;;;21.17;100.00
51526;BME280;37611;51.794;21.590;2023-06-22T00:18:36;100007.73;;;21.13;100.00
51526;BME280;37611;51.794;21.590;2023-06-22T00:22:38;100011.34;;;21.04;100.00
51526;BME280;37611;51.794;21.590;2023-06-22T00:26:40;100008.71;;;20.97;100.00
51526;BME280;37611;51.794;21.590;2023-06-22T00:30:42;100012.06;;;20.94;100.00
51526;BME280;37611;51.794;21.590;2023-06-22T00:34:44;100010.02;;;20.91;100.00
51526;BME280;37611;51.794;21.590;2023-06-22T00:38:46;100003.77;;;20.89;100.00
51526;BME280;37611;51.794;21.590;2023-06-22T00:42:48;100001.58;;;20.86;100.00
51526;BME280;37611;51.794;21.590;2023-06-22T00:46:50;99997.70;;;20.83;100.00
51526;BME280;37611;51.794;21.590;2023-06-22T00:50:52;99997.48;;;20.78;100.00
51526;BME280;37611;51.794;21.590;2023-06-22T00:54:57;99994.15;;;20.71;100.00
51526;BME280;37611;51.794;21.590;2023-06-22T00:59:00;99986.84;;;20.70;100.00
51526;BME280;37611;51.794;21.590;2023-06-22T01:03:04;99997.42;;;20.62;100.00
51526;BME280;37611;51.794;21.590;2023-06-22T01:11:38;99999.55;;;20.38;100.00
51526;BME280;37611;51.794;21.590;2023-06-22T01:15:47;99994.61;;;20.27;100.00
51526;BME280;37611;51.794;21.590;2023-06-22T01:19:54;99989.25;;;20.25;100.00
51526;BME280;37611;51.794;21.590;2023-06-22T01:24:10;99994.29;;;20.15;100.00
51526;BME280;37611;51.794;21.590;2023-06-22T01:32:48;99995.86;;;19.97;100.00
51526;BME280;37611;51.794;21.590;2023-06-22T01:36:52;99994.59;;;19.95;100.00
51526;BME280;37611;51.794;21.590;2023-06-22T01:40:54;99998.20;;;19.88;100.00
51526;BME280;37611;51.794;21.590;2023-06-22T01:44:58;99998.14;;;19.74;100.00
51526;BME280;37611;51.794;21.590;2023-06-22T01:49:02;99997.30;;;19.69;100.00
51526;BME280;37611;51.794;21.590;2023-06-22T01:53:05;99992.06;;;19.68;100.00
51526;BME280;37611;51.794;21.590;2023-06-22T01:57:08;99985.45;;;19.68;100.00
51526;BME280;37611;51.794;21.590;2023-06-22T02:01:14;99993.70;;;19.68;100.00
51526;BME280;37611;51.794;21.590;2023-06-22T02:05:18;99999.21;;;19.59;100.00
51526;BME280;37611;51.794;21.590;2023-06-22T02:09:21;99991.61;;;19.52;100.00
51526;BME280;37611;51.794;21.590;2023-06-22T02:13:25;99987.29;;;19.52;100.00
51526;BME280;37611;51.794;21.590;2023-06-22T02:17:28;99987.98;;;19.49;100.00
51526;BME280;37611;51.794;21.590;2023-06-22T02:21:31;99984.77;;;19.49;100.00
51526;BME280;37611;51.794;21.590;2023-06-22T02:25:34;99992.36;;;19.48;100.00
51526;BME280;37611;51.794;21.590;2023-06-22T02:29:36;99989.35;;;19.41;100.00
51526;BME280;37611;51.794;21.590;2023-06-22T02:33:38;99991.27;;;19.39;100.00
51526;BME280;37611;51.794;21.590;2023-06-22T02:37:40;100000.22;;;19.36;100.00
51526;BME280;37611;51.794;21.590;2023-06-22T02:41:43;100008.71;;;19.33;100.00
51526;BME280;37611;51.794;21.590;2023-06-22T02:45:45;100018.23;;;19.27;100.00
51526;BME280;37611;51.794;21.590;2023-06-22T02:49:46;100025.38;;;19.20;100.00
51526;BME280;37611;51.794;21.590;2023-06-22T02:53:48;100031.86;;;19.15;100.00
51526;BME280;37611;51.794;21.590;2023-06-22T02:57:53;100044.20;;;19.11;100.00
51526;BME280;37611;51.794;21.590;2023-06-22T03:01:55;100048.13;;;19.15;100.00
51526;BME280;37611;51.794;21.590;2023-06-22T03:05:57;100053.27;;;19.19;100.00
51526;BME280;37611;51.794;21.590;2023-06-22T03:09:59;100057.90;;;19.22;100.00
51526;BME280;37611;51.794;21.590;2023-06-22T03:14:01;100064.42;;;19.25;100.00
51526;BME280;37611;51.794;21.590;2023-06-22T03:18:03;100068.06;;;19.28;100.00
51526;BME280;37611;51.794;21.590;2023-06-22T03:22:05;100069.85;;;19.30;100.00
51526;BME280;37611;51.794;21.590;2023-06-22T03:26:08;100072.29;;;19.40;100.00
51526;BME280;37611;51.794;21.590;2023-06-22T03:30:11;100063.67;;;19.48;100.00
51526;BME280;37611;51.794;21.590;2023-06-22T03:34:13;100067.64;;;19.52;100.00
51526;BME280;37611;51.794;21.590;2023-06-22T03:38:16;100069.39;;;19.57;100.00
51526;BME280;37611;51.794;21.590;2023-06-22T03:42:18;100067.13;;;19.62;100.00
51526;BME280;37611;51.794;21.590;2023-06-22T03:46:20;100076.55;;;19.71;100.00
51526;BME280;37611;51.794;21.590;2023-06-22T03:50:22;100082.72;;;19.79;100.00
51526;BME280;37611;51.794;21.590;2023-06-22T03:54:24;100087.36;;;19.89;100.00
51526;BME280;37611;51.794;21.590;2023-06-22T03:58:26;100090.08;;;19.97;100.00
51526;BME280;37611;51.794;21.590;2023-06-22T04:02:28;100095.20;;;20.01;100.00
51526;BME280;37611;51.794;21.590;2023-06-22T04:06:29;100096.36;;;20.07;100.00
51526;BME280;37611;51.794;21.590;2023-06-22T04:10:32;100088.02;;;20.17;100.00
51526;BME280;37611;51.794;21.590;2023-06-22T04:14:34;100086.55;;;20.33;100.00
51526;BME280;37611;51.794;21.590;2023-06-22T04:18:36;100085.70;;;20.44;100.00
51526;BME280;37611;51.794;21.590;2023-06-22T04:22:38;100087.58;;;20.51;100.00
51526;BME280;37611;51.794;21.590;2023-06-22T04:26:40;100091.61;;;20.63;100.00
51526;BME280;37611;51.794;21.590;2023-06-22T04:30:43;100094.37;;;20.80;100.00
51526;BME280;37611;51.794;21.590;2023-06-22T04:34:48;100093.33;;;20.97;100.00
51526;BME280;37611;51.794;21.590;2023-06-22T04:38:50;100106.23;;;21.05;100.00
51526;BME280;37611;51.794;21.590;2023-06-22T04:42:54;100107.01;;;21.07;100.00
51526;BME280;37611;51.794;21.590;2023-06-22T04:47:01;100107.70;;;21.14;100.00
51526;BME280;37611;51.794;21.590;2023-06-22T04:51:05;100101.63;;;21.27;100.00
51526;BME280;37611;51.794;21.590;2023-06-22T04:55:07;100098.86;;;21.43;100.00
51526;BME280;37611;51.794;21.590;2023-06-22T04:59:10;100103.78;;;21.54;100.00
51526;BME280;37611;51.794;21.590;2023-06-22T05:03:14;100114.08;;;21.57;100.00
51526;BME280;37611;51.794;21.590;2023-06-22T05:07:20;100118.06;;;21.56;100.00
51526;BME280;37611;51.794;21.590;2023-06-22T05:11:21;100117.02;;;21.55;100.00
51526;BME280;37611;51.794;21.590;2023-06-22T05:15:23;100118.59;;;21.54;100.00
51526;BME280;37611;51.794;21.590;2023-06-22T05:19:29;100115.03;;;21.60;100.00
51526;BME280;37611;51.794;21.590;2023-06-22T05:23:34;100112.45;;;21.70;100.00
51526;BME280;37611;51.794;21.590;2023-06-22T05:32:20;100113.93;;;21.82;100.00
51526;BME280;37611;51.794;21.590;2023-06-22T05:36:46;100114.80;;;21.89;100.00
51526;BME280;37611;51.794;21.590;2023-06-22T05:50:01;100117.31;;;21.92;100.00
51526;BME280;37611;51.794;21.590;2023-06-22T05:54:32;100120.02;;;21.93;100.00
51526;BME280;37611;51.794;21.590;2023-06-22T05:58:46;100118.31;;;21.97;100.00
51526;BME280;37611;51.794;21.590;2023-06-22T06:03:40;100118.34;;;22.02;100.00
51526;BME280;37611;51.794;21.590;2023-06-22T06:08:03;100118.11;;;22.13;100.00
51526;BME280;37611;51.794;21.590;2023-06-22T06:12:10;100128.10;;;22.15;100.00
51526;BME280;37611;51.794;21.590;2023-06-22T06:16:15;100140.80;;;22.11;100.00
51526;BME280;37611;51.794;21.590;2023-06-22T06:20:24;100143.65;;;21.95;100.00
51526;BME280;37611;51.794;21.590;2023-06-22T06:24:29;100153.88;;;21.81;100.00
51526;BME280;37611;51.794;21.590;2023-06-22T06:33:47;100168.91;;;21.60;100.00
51526;BME280;37611;51.794;21.590;2023-06-22T06:38:29;100167.33;;;21.58;100.00
51526;BME280;37611;51.794;21.590;2023-06-22T06:52:39;100170.16;;;21.66;100.00
51526;BME280;37611;51.794;21.590;2023-06-22T07:02:31;100157.86;;;21.82;100.00
51526;BME280;37611;51.794;21.590;2023-06-22T07:16:11;100159.21;;;22.45;100.00
51526;BME280;37611;51.794;21.590;2023-06-22T07:30:17;100169.84;;;22.84;100.00
51526;BME280;37611;51.794;21.590;2023-06-22T07:35:08;100168.28;;;22.90;100.00
51526;BME280;37611;51.794;21.590;2023-06-22T07:44:26;100176.16;;;23.02;100.00
51526;BME280;37611;51.794;21.590;2023-06-22T07:48:48;100177.78;;;23.06;100.00
51526;BME280;37611;51.794;21.590;2023-06-22T07:53:34;100176.40;;;23.15;100.00
51526;BME280;37611;51.794;21.590;2023-06-22T07:58:07;100176.61;;;23.39;100.00
51526;BME280;37611;51.794;21.590;2023-06-22T08:07:27;100174.15;;;23.94;100.00
51526;BME280;37611;51.794;21.590;2023-06-22T08:16:23;100182.87;;;24.52;100.00
51526;BME280;37611;51.794;21.590;2023-06-22T08:20:33;100180.81;;;24.71;100.00
51526;BME280;37611;51.794;21.590;2023-06-22T08:24:46;100191.38;;;24.79;100.00
51526;BME280;37611;51.794;21.590;2023-06-22T08:29:11;100193.47;;;24.86;100.00
51526;BME280;37611;51.794;21.590;2023-06-22T08:33:13;100197.03;;;24.94;100.00
51526;BME280;37611;51.794;21.590;2023-06-22T08:37:55;100199.61;;;25.18;100.00
51526;BME280;37611;51.794;21.590;2023-06-22T08:42:19;100203.27;;;25.33;100.00
51526;BME280;37611;51.794;21.590;2023-06-22T08:46:30;100214.42;;;25.45;99.36
51526;BME280;37611;51.794;21.590;2023-06-22T08:50:34;100213.70;;;25.50;99.86
51526;BME280;37611;51.794;21.590;2023-06-22T08:54:36;100213.42;;;25.57;98.94
51526;BME280;37611;51.794;21.590;2023-06-22T08:58:58;100211.83;;;25.71;98.43
51526;BME280;37611;51.794;21.590;2023-06-22T09:03:22;100204.77;;;25.88;96.46
51526;BME280;37611;51.794;21.590;2023-06-22T09:07:38;100199.86;;;25.81;94.58
51526;BME280;37611;51.794;21.590;2023-06-22T09:11:40;100197.83;;;25.75;93.64
51526;BME280;37611;51.794;21.590;2023-06-22T09:15:42;100201.00;;;25.84;92.33
51526;BME280;37611;51.794;21.590;2023-06-22T09:20:16;100188.66;;;25.95;90.90
51526;BME280;37611;51.794;21.590;2023-06-22T09:24:18;100182.54;;;26.13;91.79
51526;BME280;37611;51.794;21.590;2023-06-22T09:28:22;100181.02;;;26.26;90.33
51526;BME280;37611;51.794;21.590;2023-06-22T09:32:25;100182.30;;;26.42;90.04
51526;BME280;37611;51.794;21.590;2023-06-22T09:36:27;100180.45;;;26.58;89.95
51526;BME280;37611;51.794;21.590;2023-06-22T09:40:29;100180.67;;;26.76;88.15
51526;BME280;37611;51.794;21.590;2023-06-22T09:44:31;100186.83;;;26.92;87.43
51526;BME280;37611;51.794;21.590;2023-06-22T09:48:33;100193.98;;;27.07;85.72
51526;BME280;37611;51.794;21.590;2023-06-22T09:52:35;100190.39;;;27.21;84.42
51526;BME280;37611;51.794;21.590;2023-06-22T09:56:36;100192.65;;;27.40;81.06
51526;BME280;37611;51.794;21.590;2023-06-22T10:00:47;100185.23;;;27.52;78.82
51526;BME280;37611;51.794;21.590;2023-06-22T10:04:52;100179.44;;;27.57;78.94
51526;BME280;37611;51.794;21.590;2023-06-22T10:09:02;100179.42;;;27.63;77.34
51526;BME280;37611;51.794;21.590;2023-06-22T10:13:22;100181.79;;;27.77;77.39
51526;BME280;37611;51.794;21.590;2023-06-22T10:17:24;100183.52;;;27.85;75.51
51526;BME280;37611;51.794;21.590;2023-06-22T10:21:29;100184.06;;;27.95;71.91
51526;BME280;37611;51.794;21.590;2023-06-22T10:25:31;100176.27;;;28.03;70.68
51526;BME280;37611;51.794;21.590;2023-06-22T10:29:33;100170.02;;;28.07;70.24
51526;BME280;37611;51.794;21.590;2023-06-22T10:33:35;100161.66;;;28.14;69.93
51526;BME280;37611;51.794;21.590;2023-06-22T10:37:37;100157.38;;;28.20;69.12
51526;BME280;37611;51.794;21.590;2023-06-22T10:41:39;100155.56;;;28.25;68.36
51526;BME280;37611;51.794;21.590;2023-06-22T10:45:50;100154.11;;;28.32;67.02
51526;BME280;37611;51.794;21.590;2023-06-22T10:49:52;100152.61;;;28.35;64.50
51526;BME280;37611;51.794;21.590;2023-06-22T10:53:57;100152.27;;;28.40;64.29
51526;BME280;37611;51.794;21.590;2023-06-22T10:57:59;100150.39;;;28.47;63.20
51526;BME280;37611;51.794;21.590;2023-06-22T11:02:01;100144.58;;;28.54;61.79
51526;BME280;37611;51.794;21.590;2023-06-22T11:06:12;100145.27;;;28.50;60.24
51526;BME280;37611;51.794;21.590;2023-06-22T11:10:16;100142.41;;;28.53;59.81
51526;BME280;37611;51.794;21.590;2023-06-22T11:14:18;100141.07;;;28.59;57.37
51526;BME280;37611;51.794;21.590;2023-06-22T11:18:20;100136.88;;;28.68;57.41
51526;BME280;37611;51.794;21.590;2023-06-22T11:22:22;100134.29;;;28.79;56.31
51526;BME280;37611;51.794;21.590;2023-06-22T11:26:24;100128.28;;;28.88;56.25
51526;BME280;37611;51.794;21.590;2023-06-22T11:30:29;100126.58;;;29.03;55.57
51526;BME280;37611;51.794;21.590;2023-06-22T11:34:31;100129.17;;;29.17;55.48
51526;BME280;37611;51.794;21.590;2023-06-22T11:38:33;100125.70;;;29.24;54.52
51526;BME280;37611;51.794;21.590;2023-06-22T11:42:35;100123.06;;;29.18;52.51
51526;BME280;37611;51.794;21.590;2023-06-22T11:46:40;100116.79;;;29.15;50.92
51526;BME280;37611;51.794;21.590;2023-06-22T11:50:44;100117.54;;;29.17;50.30
51526;BME280;37611;51.794;21.590;2023-06-22T11:54:46;100122.55;;;29.30;50.10
51526;BME280;37611;51.794;21.590;2023-06-22T11:58:47;100116.58;;;29.36;48.96
51526;BME280;37611;51.794;21.590;2023-06-22T12:02:50;100112.77;;;29.25;46.02
51526;BME280;37611;51.794;21.590;2023-06-22T12:06:54;100112.45;;;29.19;47.13
51526;BME280;37611;51.794;21.590;2023-06-22T12:11:05;100106.50;;;29.16;46.78
51526;BME280;37611;51.794;21.590;2023-06-22T12:15:09;100106.55;;;29.23;46.45
51526;BME280;37611;51.794;21.590;2023-06-22T12:19:11;100108.74;;;29.33;47.13
51526;BME280;37611;51.794;21.590;2023-06-22T12:23:15;100112.09;;;29.37;47.93
51526;BME280;37611;51.794;21.590;2023-06-22T12:27:17;100110.30;;;29.42;47.95
51526;BME280;37611;51.794;21.590;2023-06-22T12:31:25;100109.36;;;29.46;47.41
51526;BME280;37611;51.794;21.590;2023-06-22T12:35:30;100115.75;;;29.54;46.47
51526;BME280;37611;51.794;21.590;2023-06-22T12:39:32;100117.36;;;29.65;45.96
51526;BME280;37611;51.794;21.590;2023-06-22T12:43:34;100121.05;;;29.77;45.00
51526;BME280;37611;51.794;21.590;2023-06-22T12:47:35;100125.75;;;29.82;43.49
51526;BME280;37611;51.794;21.590;2023-06-22T12:51:41;100132.74;;;29.81;42.45
51526;BME280;37611;51.794;21.590;2023-06-22T12:55:46;100121.43;;;29.79;42.14
51526;BME280;37611;51.794;21.590;2023-06-22T12:59:48;100104.33;;;29.76;41.96
51526;BME280;37611;51.794;21.590;2023-06-22T13:03:50;100108.13;;;29.73;41.79
51526;BME280;37611;51.794;21.590;2023-06-22T13:07:51;100106.33;;;29.74;42.23
51526;BME280;37611;51.794;21.590;2023-06-22T13:11:53;100106.99;;;29.71;42.55
51526;BME280;37611;51.794;21.590;2023-06-22T13:15:55;100105.36;;;29.75;43.39
51526;BME280;37611;51.794;21.590;2023-06-22T13:19:57;100106.48;;;29.76;41.93
51526;BME280;37611;51.794;21.590;2023-06-22T13:23:59;100114.23;;;29.66;41.92
51526;BME280;37611;51.794;21.590;2023-06-22T13:28:01;100110.70;;;29.66;42.07
51526;BME280;37611;51.794;21.590;2023-06-22T13:32:03;100110.92;;;29.74;42.49
51526;BME280;37611;51.794;21.590;2023-06-22T13:36:05;100111.63;;;29.78;42.56
51526;BME280;37611;51.794;21.590;2023-06-22T13:40:08;100109.00;;;29.70;41.69
51526;BME280;37611;51.794;21.590;2023-06-22T13:44:10;100104.35;;;29.68;43.02
51526;BME280;37611;51.794;21.590;2023-06-22T13:48:12;100102.79;;;29.69;43.08
51526;BME280;37611;51.794;21.590;2023-06-22T13:52:13;100096.88;;;29.69;43.75
51526;BME280;37611;51.794;21.590;2023-06-22T13:56:15;100095.57;;;29.72;43.38
51526;BME280;37611;51.794;21.590;2023-06-22T14:00:17;100094.65;;;29.70;43.74
51526;BME280;37611;51.794;21.590;2023-06-22T14:04:19;100092.77;;;29.67;43.66
51526;BME280;37611;51.794;21.590;2023-06-22T14:08:21;100083.96;;;29.62;43.67
51526;BME280;37611;51.794;21.590;2023-06-22T14:12:25;100086.02;;;29.59;42.66
51526;BME280;37611;51.794;21.590;2023-06-22T14:16:26;100090.15;;;29.54;41.93
51526;BME280;37611;51.794;21.590;2023-06-22T14:20:28;100091.45;;;29.48;41.62
51526;BME280;37611;51.794;21.590;2023-06-22T14:24:30;100085.08;;;29.44;41.91
51526;BME280;37611;51.794;21.590;2023-06-22T14:28:32;100090.83;;;29.41;43.24
51526;BME280;37611;51.794;21.590;2023-06-22T14:32:34;100092.02;;;29.38;43.92
51526;BME280;37611;51.794;21.590;2023-06-22T14:36:35;100091.71;;;29.32;44.02
51526;BME280;37611;51.794;21.590;2023-06-22T14:40:37;100092.48;;;29.26;44.18
51526;BME280;37611;51.794;21.590;2023-06-22T14:44:39;100089.90;;;29.19;44.03
51526;BME280;37611;51.794;21.590;2023-06-22T14:48:41;100090.94;;;29.09;44.20
51526;BME280;37611;51.794;21.590;2023-06-22T14:52:44;100090.58;;;29.02;44.00
51526;BME280;37611;51.794;21.590;2023-06-22T14:56:48;100089.90;;;28.94;43.85
51526;BME280;37611;51.794;21.590;2023-06-22T15:00:50;100085.46;;;28.81;44.04
51526;BME280;37611;51.794;21.590;2023-06-22T15:04:51;100086.97;;;28.74;44.20
51526;BME280;37611;51.794;21.590;2023-06-22T15:08:54;100084.54;;;28.64;43.53
51526;BME280;37611;51.794;21.590;2023-06-22T15:12:56;100078.91;;;28.53;43.15
51526;BME280;37611;51.794;21.590;2023-06-22T15:16:58;100081.27;;;28.44;43.52
51526;BME280;37611;51.794;21.590;2023-06-22T15:20:59;100088.55;;;28.35;43.99
51526;BME280;37611;51.794;21.590;2023-06-22T15:25:03;100091.23;;;28.31;44.99
51526;BME280;37611;51.794;21.590;2023-06-22T15:29:05;100089.70;;;28.29;45.22
51526;BME280;37611;51.794;21.590;2023-06-22T15:33:07;100084.89;;;28.28;45.66
51526;BME280;37611;51.794;21.590;2023-06-22T15:37:09;100079.33;;;28.26;46.34
51526;BME280;37611;51.794;21.590;2023-06-22T15:41:10;100076.45;;;28.25;46.65
51526;BME280;37611;51.794;21.590;2023-06-22T15:45:15;100076.17;;;28.20;46.50
51526;BME280;37611;51.794;21.590;2023-06-22T15:49:20;100072.22;;;28.11;46.94
51526;BME280;37611;51.794;21.590;2023-06-22T15:53:24;100073.11;;;28.04;47.46
51526;BME280;37611;51.794;21.590;2023-06-22T15:57:27;100063.75;;;27.98;47.70
51526;BME280;37611;51.794;21.590;2023-06-22T16:01:29;100063.02;;;27.89;47.90
51526;BME280;37611;51.794;21.590;2023-06-22T16:05:31;100062.28;;;27.79;48.01
51526;BME280;37611;51.794;21.590;2023-06-22T16:09:37;100058.90;;;27.73;48.53
51526;BME280;37611;51.794;21.590;2023-06-22T16:13:39;100057.69;;;27.68;48.50
51526;BME280;37611;51.794;21.590;2023-06-22T16:17:42;100059.13;;;27.64;48.67
51526;BME280;37611;51.794;21.590;2023-06-22T16:21:53;100057.05;;;27.60;48.87
51526;BME280;37611;51.794;21.590;2023-06-22T16:26:05;100054.84;;;27.61;49.51
51526;BME280;37611;51.794;21.590;2023-06-22T16:30:07;100052.30;;;27.60;49.75
51526;BME280;37611;51.794;21.590;2023-06-22T16:34:09;100052.84;;;27.57;49.86
51526;BME280;37611;51.794;21.590;2023-06-22T16:38:11;100051.08;;;27.54;49.61
51526;BME280;37611;51.794;21.590;2023-06-22T16:42:24;100050.38;;;27.49;49.84
51526;BME280;37611;51.794;21.590;2023-06-22T16:46:26;100045.73;;;27.41;49.73
51526;BME280;37611;51.794;21.590;2023-06-22T16:50:29;100046.34;;;27.33;49.96
51526;BME280;37611;51.794;21.590;2023-06-22T16:54:39;100051.54;;;27.26;50.02
51526;BME280;37611;51.794;21.590;2023-06-22T16:58:42;100054.41;;;27.19;50.53
51526;BME280;37611;51.794;21.590;2023-06-22T17:02:52;100055.70;;;27.11;50.76
51526;BME280;37611;51.794;21.590;2023-06-22T17:07:02;100060.96;;;27.03;50.58
51526;BME280;37611;51.794;21.590;2023-06-22T17:11:07;100060.37;;;26.94;50.57
51526;BME280;37611;51.794;21.590;2023-06-22T17:15:10;100052.70;;;26.86;50.94
51526;BME280;37611;51.794;21.590;2023-06-22T17:19:15;100048.91;;;26.78;51.27
51526;BME280;37611;51.794;21.590;2023-06-22T17:23:20;100048.08;;;26.67;51.41
51526;BME280;37611;51.794;21.590;2023-06-22T17:31:55;100049.58;;;26.49;52.18
51526;BME280;37611;51.794;21.590;2023-06-22T17:35:57;100045.85;;;26.38;52.39
51526;BME280;37611;51.794;21.590;2023-06-22T17:40:13;100047.59;;;26.28;52.69
51526;BME280;37611;51.794;21.590;2023-06-22T17:44:26;100048.88;;;26.16;53.30
51526;BME280;37611;51.794;21.590;2023-06-22T17:54:04;100043.59;;;25.91;54.07
51526;BME280;37611;51.794;21.590;2023-06-22T17:58:35;100039.02;;;25.80;54.45
51526;BME280;37611;51.794;21.590;2023-06-22T18:02:59;100037.62;;;25.66;55.02
51526;BME280;37611;51.794;21.590;2023-06-22T18:07:10;100032.36;;;25.53;55.24
51526;BME280;37611;51.794;21.590;2023-06-22T18:11:38;100029.73;;;25.41;55.58
51526;BME280;37611;51.794;21.590;2023-06-22T18:16:13;100028.89;;;25.27;55.99
51526;BME280;37611;51.794;21.590;2023-06-22T18:20:56;100034.90;;;25.15;56.54
51526;BME280;37611;51.794;21.590;2023-06-22T18:24:56;100032.53;;;25.01;57.29
51526;BME280;37611;51.794;21.590;2023-06-22T18:29:11;100029.27;;;24.89;57.88
51526;BME280;37611;51.794;21.590;2023-06-22T18:33:27;100034.48;;;24.74;58.75
51526;BME280;37611;51.794;21.590;2023-06-22T18:37:52;100033.00;;;24.59;58.88
51526;BME280;37611;51.794;21.590;2023-06-22T18:42:15;100036.11;;;24.44;59.40
51526;BME280;37611;51.794;21.590;2023-06-22T18:56:14;100044.45;;;24.12;59.66
51526;BME280;37611;51.794;21.590;2023-06-22T19:01:35;100045.39;;;24.03;60.01
51526;BME280;37611;51.794;21.590;2023-06-22T19:20:20;100061.13;;;23.34;63.98
51526;BME280;37611;51.794;21.590;2023-06-22T19:24:51;100065.41;;;23.16;64.82
51526;BME280;37611;51.794;21.590;2023-06-22T19:29:25;100062.59;;;23.00;65.08
51526;BME280;37611;51.794;21.590;2023-06-22T19:33:46;100057.34;;;22.90;65.56
51526;BME280;37611;51.794;21.590;2023-06-22T19:38:30;100056.74;;;22.81;66.10
51526;BME280;37611;51.794;21.590;2023-06-22T19:43:15;100051.85;;;22.69;66.70
51526;BME280;37611;51.794;21.590;2023-06-22T19:57:36;100042.48;;;22.47;67.95
51526;BME280;37611;51.794;21.590;2023-06-22T20:02:03;100035.63;;;22.37;67.91
51526;BME280;37611;51.794;21.590;2023-06-22T20:06:31;100026.02;;;22.23;68.59
51526;BME280;37611;51.794;21.590;2023-06-22T20:16:45;100019.55;;;21.95;70.66
51526;BME280;37611;51.794;21.590;2023-06-22T20:21:00;100016.09;;;21.86;71.67
51526;BME280;37611;51.794;21.590;2023-06-22T20:25:42;100013.74;;;21.76;72.45
51526;BME280;37611;51.794;21.590;2023-06-22T21:55:11;99982.32;;;19.74;81.34
51526;BME280;37611;51.794;21.590;2023-06-22T22:09:58;99989.05;;;19.73;83.24
51526;BME280;37611;51.794;21.590;2023-06-22T22:53:38;100002.78;;;19.33;86.18
51526;BME280;37611;51.794;21.590;2023-06-22T23:12:42;99984.96;;;19.11;87.51
51526;BME280;37611;51.794;21.590;2023-06-22T23:27:12;99987.95;;;18.81;88.52
